sensor_id;sensor_type;location;lat;lon;timestamp;P1;durP1;ratioP1;P2;durP2;ratioP2
64832;SDS011;51290;45.060;38.948;2023-08-24T00:00:59;15.38;;;6.10;;
64832;SDS011;51290;45.060;38.948;2023-08-24T00:03:25;12.98;;;6.05;;
64832;SDS011;51290;45.060;38.948;2023-08-24T00:05:51;9.50;;;5.72;;
64832;SDS011;51290;45.060;38.948;2023-08-24T00:08:17;10.05;;;5.65;;
64832;SDS011;51290;45.060;38.948;2023-08-24T00:10:44;13.35;;;6.32;;
64832;SDS011;51290;45.060;38.948;2023-08-24T00:13:13;9.35;;;5.50;;
64832;SDS011;51290;45.060;38.948;2023-08-24T00:15:39;11.60;;;5.20;;
64832;SDS011;51290;45.060;38.948;2023-08-24T00:18:06;20.80;;;6.40;;
64832;SDS011;51290;45.060;38.948;2023-08-24T00:20:33;12.02;;;5.95;;
64832;SDS011;51290;45.060;38.948;2023-08-24T00:22:59;12.13;;;6.20;;
64832;SDS011;51290;45.060;38.948;2023-08-24T00:25:25;13.82;;;6.22;;
64832;SDS011;51290;45.060;38.948;2023-08-24T00:27:52;11.15;;;6.05;;
64832;SDS011;51290;45.060;38.948;2023-08-24T00:30:19;13.57;;;6.10;;
64832;SDS011;51290;45.060;38.948;2023-08-24T00:32:45;9.63;;;5.63;;
64832;SDS011;51290;45.060;38.948;2023-08-24T00:35:11;9.20;;;6.28;;
64832;SDS011;51290;45.060;38.948;2023-08-24T00:37:37;14.40;;;6.38;;
64832;SDS011;51290;45.060;38.948;2023-08-24T00:40:04;11.60;;;5.30;;
64832;SDS011;51290;45.060;38.948;2023-08-24T00:42:38;13.82;;;5.78;;
64832;SDS011;51290;45.060;38.948;2023-08-24T00:45:06;8.80;;;5.75;;
64832;SDS011;51290;45.060;38.948;2023-08-24T00:47:33;9.45;;;5.55;;
64832;SDS011;51290;45.060;38.948;2023-08-24T00:50:00;10.10;;;5.97;;
64832;SDS011;51290;45.060;38.948;2023-08-24T00:52:26;8.45;;;5.43;;
64832;SDS011;51290;45.060;38.948;2023-08-24T00:54:56;10.25;;;5.38;;
64832;SDS011;51290;45.060;38.948;2023-08-24T00:57:24;15.65;;;6.03;;
64832;SDS011;51290;45.060;38.948;2023-08-24T00:59:52;16.23;;;5.32;;
64832;SDS011;51290;45.060;38.948;2023-08-24T01:02:18;11.25;;;5.32;;
64832;SDS011;51290;45.060;38.948;2023-08-24T01:04:44;14.02;;;6.55;;
64832;SDS011;51290;45.060;38.948;2023-08-24T01:07:12;10.38;;;6.55;;
64832;SDS011;51290;45.060;38.948;2023-08-24T01:09:39;10.38;;;6.05;;
64832;SDS011;51290;45.060;38.948;2023-08-24T01:14:39;12.30;;;6.05;;
64832;SDS011;51290;45.060;38.948;2023-08-24T01:17:14;10.73;;;6.13;;
64832;SDS011;51290;45.060;38.948;2023-08-24T01:19:45;11.75;;;5.80;;
64832;SDS011;51290;45.060;38.948;2023-08-24T01:22:17;8.38;;;5.10;;
64832;SDS011;51290;45.060;38.948;2023-08-24T01:24:47;10.93;;;5.35;;
64832;SDS011;51290;45.060;38.948;2023-08-24T01:27:26;13.07;;;4.88;;
64832;SDS011;51290;45.060;38.948;2023-08-24T01:29:53;7.88;;;5.03;;
64832;SDS011;51290;45.060;38.948;2023-08-24T01:32:24;7.95;;;4.82;;
64832;SDS011;51290;45.060;38.948;2023-08-24T01:34:50;11.55;;;5.47;;
64832;SDS011;51290;45.060;38.948;2023-08-24T01:37:16;11.30;;;5.35;;
64832;SDS011;51290;45.060;38.948;2023-08-24T01:39:48;13.32;;;4.70;;
64832;SDS011;51290;45.060;38.948;2023-08-24T01:42:24;9.70;;;4.78;;
64832;SDS011;51290;45.060;38.948;2023-08-24T01:47:33;8.13;;;4.85;;
64832;SDS011;51290;45.060;38.948;2023-08-24T01:50:02;8.57;;;5.03;;
64832;SDS011;51290;45.060;38.948;2023-08-24T01:52:28;9.75;;;4.80;;
64832;SDS011;51290;45.060;38.948;2023-08-24T01:54:55;9.50;;;5.68;;
64832;SDS011;51290;45.060;38.948;2023-08-24T01:57:21;10.45;;;4.82;;
64832;SDS011;51290;45.060;38.948;2023-08-24T01:59:47;7.28;;;4.68;;
64832;SDS011;51290;45.060;38.948;2023-08-24T02:02:13;8.00;;;4.80;;
64832;SDS011;51290;45.060;38.948;2023-08-24T02:04:39;10.43;;;4.70;;
64832;SDS011;51290;45.060;38.948;2023-08-24T02:07:05;9.05;;;4.95;;
64832;SDS011;51290;45.060;38.948;2023-08-24T02:09:31;8.52;;;5.47;;
64832;SDS011;51290;45.060;38.948;2023-08-24T02:11:57;9.55;;;4.93;;
64832;SDS011;51290;45.060;38.948;2023-08-24T02:14:23;8.60;;;4.82;;
64832;SDS011;51290;45.060;38.948;2023-08-24T02:16:49;9.32;;;4.93;;
64832;SDS011;51290;45.060;38.948;2023-08-24T02:19:15;7.78;;;4.75;;
64832;SDS011;51290;45.060;38.948;2023-08-24T02:21:41;10.65;;;5.45;;
64832;SDS011;51290;45.060;38.948;2023-08-24T02:24:08;7.50;;;4.88;;
64832;SDS011;51290;45.060;38.948;2023-08-24T02:26:33;8.63;;;4.65;;
64832;SDS011;51290;45.060;38.948;2023-08-24T02:28:59;8.70;;;4.45;;
64832;SDS011;51290;45.060;38.948;2023-08-24T02:31:26;11.20;;;5.10;;
64832;SDS011;51290;45.060;38.948;2023-08-24T02:33:52;12.98;;;5.05;;
64832;SDS011;51290;45.060;38.948;2023-08-24T02:36:18;10.75;;;4.80;;
64832;SDS011;51290;45.060;38.948;2023-08-24T02:38:44;7.15;;;4.13;;
64832;SDS011;51290;45.060;38.948;2023-08-24T02:41:10;8.40;;;4.82;;
64832;SDS011;51290;45.060;38.948;2023-08-24T02:43:36;7.90;;;4.68;;
64832;SDS011;51290;45.060;38.948;2023-08-24T02:46:04;6.97;;;4.75;;
64832;SDS011;51290;45.060;38.948;2023-08-24T02:48:31;8.18;;;4.55;;
64832;SDS011;51290;45.060;38.948;2023-08-24T02:50:58;8.98;;;4.85;;
64832;SDS011;51290;45.060;38.948;2023-08-24T02:53:25;8.43;;;4.75;;
64832;SDS011;51290;45.060;38.948;2023-08-24T02:55:53;10.45;;;4.13;;
64832;SDS011;51290;45.060;38.948;2023-08-24T02:58:22;6.75;;;4.32;;
64832;SDS011;51290;45.060;38.948;2023-08-24T03:00:48;9.57;;;4.43;;
64832;SDS011;51290;45.060;38.948;2023-08-24T03:03:15;10.13;;;4.65;;
64832;SDS011;51290;45.060;38.948;2023-08-24T03:05:58;5.15;;;3.67;;
64832;SDS011;51290;45.060;38.948;2023-08-24T03:08:28;13.27;;;5.13;;
64832;SDS011;51290;45.060;38.948;2023-08-24T03:10:55;14.95;;;5.68;;
64832;SDS011;51290;45.060;38.948;2023-08-24T03:13:21;11.60;;;5.40;;
64832;SDS011;51290;45.060;38.948;2023-08-24T03:15:48;11.95;;;4.88;;
64832;SDS011;51290;45.060;38.948;2023-08-24T03:18:14;12.30;;;5.82;;
64832;SDS011;51290;45.060;38.948;2023-08-24T03:20:43;11.43;;;5.07;;
64832;SDS011;51290;45.060;38.948;2023-08-24T03:23:09;18.00;;;5.65;;
64832;SDS011;51290;45.060;38.948;2023-08-24T03:25:36;11.18;;;5.25;;
64832;SDS011;51290;45.060;38.948;2023-08-24T03:28:03;13.23;;;5.20;;
64832;SDS011;51290;45.060;38.948;2023-08-24T03:30:30;13.35;;;5.43;;
64832;SDS011;51290;45.060;38.948;2023-08-24T03:32:56;17.27;;;5.32;;
64832;SDS011;51290;45.060;38.948;2023-08-24T03:35:23;11.43;;;5.22;;
64832;SDS011;51290;45.060;38.948;2023-08-24T03:37:49;12.05;;;5.32;;
64832;SDS011;51290;45.060;38.948;2023-08-24T03:40:16;13.93;;;5.70;;
64832;SDS011;51290;45.060;38.948;2023-08-24T03:42:42;9.90;;;5.60;;
64832;SDS011;51290;45.060;38.948;2023-08-24T03:45:08;19.70;;;5.82;;
64832;SDS011;51290;45.060;38.948;2023-08-24T03:47:39;10.23;;;5.57;;
64832;SDS011;51290;45.060;38.948;2023-08-24T03:50:06;9.27;;;5.15;;
64832;SDS011;51290;45.060;38.948;2023-08-24T03:52:33;11.90;;;6.15;;
64832;SDS011;51290;45.060;38.948;2023-08-24T03:54:59;10.85;;;5.32;;
64832;SDS011;51290;45.060;38.948;2023-08-24T03:57:25;16.50;;;6.05;;
64832;SDS011;51290;45.060;38.948;2023-08-24T03:59:53;16.17;;;6.60;;
64832;SDS011;51290;45.060;38.948;2023-08-24T04:02:19;12.82;;;6.07;;
64832;SDS011;51290;45.060;38.948;2023-08-24T04:04:45;20.98;;;5.90;;
64832;SDS011;51290;45.060;38.948;2023-08-24T04:07:11;11.70;;;5.68;;
64832;SDS011;51290;45.060;38.948;2023-08-24T04:09:37;13.93;;;5.63;;
64832;SDS011;51290;45.060;38.948;2023-08-24T04:12:03;10.65;;;5.80;;
64832;SDS011;51290;45.060;38.948;2023-08-24T04:14:30;18.95;;;8.48;;
64832;SDS011;51290;45.060;38.948;2023-08-24T04:16:56;9.90;;;5.53;;
64832;SDS011;51290;45.060;38.948;2023-08-24T04:19:22;10.98;;;5.40;;
64832;SDS011;51290;45.060;38.948;2023-08-24T04:21:48;11.32;;;5.20;;
64832;SDS011;51290;45.060;38.948;2023-08-24T04:24:14;11.85;;;5.80;;
64832;SDS011;51290;45.060;38.948;2023-08-24T04:26:40;14.82;;;5.53;;
64832;SDS011;51290;45.060;38.948;2023-08-24T04:29:06;20.27;;;5.03;;
64832;SDS011;51290;45.060;38.948;2023-08-24T04:31:32;11.80;;;5.20;;
64832;SDS011;51290;45.060;38.948;2023-08-24T04:33:58;9.60;;;5.47;;
64832;SDS011;51290;45.060;38.948;2023-08-24T04:36:24;10.25;;;5.13;;
64832;SDS011;51290;45.060;38.948;2023-08-24T04:38:52;17.38;;;5.75;;
64832;SDS011;51290;45.060;38.948;2023-08-24T04:41:18;10.02;;;4.60;;
64832;SDS011;51290;45.060;38.948;2023-08-24T04:43:44;9.55;;;4.88;;
64832;SDS011;51290;45.060;38.948;2023-08-24T04:46:10;23.30;;;6.63;;
64832;SDS011;51290;45.060;38.948;2023-08-24T04:48:36;6.40;;;4.45;;
64832;SDS011;51290;45.060;38.948;2023-08-24T04:51:02;7.35;;;4.78;;
64832;SDS011;51290;45.060;38.948;2023-08-24T04:53:28;7.40;;;4.75;;
64832;SDS011;51290;45.060;38.948;2023-08-24T04:55:54;9.65;;;5.40;;
64832;SDS011;51290;45.060;38.948;2023-08-24T04:58:21;15.32;;;5.70;;
64832;SDS011;51290;45.060;38.948;2023-08-24T05:00:47;12.88;;;5.82;;
64832;SDS011;51290;45.060;38.948;2023-08-24T05:03:14;8.55;;;5.60;;
64832;SDS011;51290;45.060;38.948;2023-08-24T05:05:41;9.20;;;5.90;;
64832;SDS011;51290;45.060;38.948;2023-08-24T05:08:07;10.45;;;5.38;;
64832;SDS011;51290;45.060;38.948;2023-08-24T05:10:36;13.18;;;6.50;;
64832;SDS011;51290;45.060;38.948;2023-08-24T05:13:02;13.32;;;6.45;;
64832;SDS011;51290;45.060;38.948;2023-08-24T05:15:28;11.25;;;6.07;;
64832;SDS011;51290;45.060;38.948;2023-08-24T05:17:54;20.60;;;7.53;;
64832;SDS011;51290;45.060;38.948;2023-08-24T05:20:21;12.48;;;6.60;;
64832;SDS011;51290;45.060;38.948;2023-08-24T05:22:48;15.38;;;7.88;;
64832;SDS011;51290;45.060;38.948;2023-08-24T05:25:14;15.60;;;6.90;;
64832;SDS011;51290;45.060;38.948;2023-08-24T05:27:43;13.07;;;6.50;;
64832;SDS011;51290;45.060;38.948;2023-08-24T05:30:09;12.65;;;6.30;;
64832;SDS011;51290;45.060;38.948;2023-08-24T05:32:36;13.27;;;6.40;;
64832;SDS011;51290;45.060;38.948;2023-08-24T05:35:05;8.38;;;5.38;;
64832;SDS011;51290;45.060;38.948;2023-08-24T05:37:32;10.13;;;5.88;;
64832;SDS011;51290;45.060;38.948;2023-08-24T05:40:01;12.25;;;6.25;;
64832;SDS011;51290;45.060;38.948;2023-08-24T05:42:28;14.02;;;5.78;;
64832;SDS011;51290;45.060;38.948;2023-08-24T05:44:54;13.73;;;5.93;;
64832;SDS011;51290;45.060;38.948;2023-08-24T05:47:20;12.25;;;5.68;;
64832;SDS011;51290;45.060;38.948;2023-08-24T05:49:46;9.63;;;5.28;;
64832;SDS011;51290;45.060;38.948;2023-08-24T05:52:12;17.45;;;6.28;;
64832;SDS011;51290;45.060;38.948;2023-08-24T05:54:39;10.63;;;5.63;;
64832;SDS011;51290;45.060;38.948;2023-08-24T05:57:05;16.85;;;6.70;;
64832;SDS011;51290;45.060;38.948;2023-08-24T05:59:32;10.55;;;5.65;;
64832;SDS011;51290;45.060;38.948;2023-08-24T06:01:59;11.73;;;5.97;;
64832;SDS011;51290;45.060;38.948;2023-08-24T06:04:24;14.48;;;6.55;;
64832;SDS011;51290;45.060;38.948;2023-08-24T06:06:51;13.55;;;6.45;;
64832;SDS011;51290;45.060;38.948;2023-08-24T06:09:17;16.35;;;6.18;;
64832;SDS011;51290;45.060;38.948;2023-08-24T06:11:43;11.07;;;6.30;;
64832;SDS011;51290;45.060;38.948;2023-08-24T06:14:09;11.18;;;6.63;;
64832;SDS011;51290;45.060;38.948;2023-08-24T06:16:35;8.77;;;5.70;;
64832;SDS011;51290;45.060;38.948;2023-08-24T06:19:01;11.93;;;5.75;;
64832;SDS011;51290;45.060;38.948;2023-08-24T06:21:27;9.35;;;5.43;;
64832;SDS011;51290;45.060;38.948;2023-08-24T06:23:53;9.52;;;5.63;;
64832;SDS011;51290;45.060;38.948;2023-08-24T06:26:19;9.90;;;5.53;;
64832;SDS011;51290;45.060;38.948;2023-08-24T06:28:45;10.52;;;5.75;;
64832;SDS011;51290;45.060;38.948;2023-08-24T06:31:11;11.70;;;5.97;;
64832;SDS011;51290;45.060;38.948;2023-08-24T06:33:37;11.85;;;6.68;;
64832;SDS011;51290;45.060;38.948;2023-08-24T06:36:04;17.90;;;6.30;;
64832;SDS011;51290;45.060;38.948;2023-08-24T06:38:30;18.13;;;6.88;;
64832;SDS011;51290;45.060;38.948;2023-08-24T06:40:57;31.42;;;13.93;;
64832;SDS011;51290;45.060;38.948;2023-08-24T06:43:23;19.85;;;11.65;;
64832;SDS011;51290;45.060;38.948;2023-08-24T06:45:50;16.73;;;11.35;;
64832;SDS011;51290;45.060;38.948;2023-08-24T06:48:17;15.15;;;7.45;;
64832;SDS011;51290;45.060;38.948;2023-08-24T06:50:43;12.77;;;7.03;;
64832;SDS011;51290;45.060;38.948;2023-08-24T06:53:09;10.25;;;5.80;;
64832;SDS011;51290;45.060;38.948;2023-08-24T06:55:36;11.93;;;5.32;;
64832;SDS011;51290;45.060;38.948;2023-08-24T06:58:02;9.70;;;4.85;;
64832;SDS011;51290;45.060;38.948;2023-08-24T07:00:30;8.13;;;5.28;;
64832;SDS011;51290;45.060;38.948;2023-08-24T07:02:57;8.77;;;5.25;;
64832;SDS011;51290;45.060;38.948;2023-08-24T07:05:23;9.55;;;5.88;;
64832;SDS011;51290;45.060;38.948;2023-08-24T07:07:49;11.95;;;5.85;;
64832;SDS011;51290;45.060;38.948;2023-08-24T07:10:15;10.98;;;5.78;;
64832;SDS011;51290;45.060;38.948;2023-08-24T07:12:41;8.23;;;5.60;;
64832;SDS011;51290;45.060;38.948;2023-08-24T07:15:10;14.48;;;5.72;;
64832;SDS011;51290;45.060;38.948;2023-08-24T07:17:37;10.27;;;5.95;;
64832;SDS011;51290;45.060;38.948;2023-08-24T07:20:03;10.45;;;5.82;;
64832;SDS011;51290;45.060;38.948;2023-08-24T07:22:40;11.48;;;5.60;;
64832;SDS011;51290;45.060;38.948;2023-08-24T07:25:06;11.15;;;5.93;;
64832;SDS011;51290;45.060;38.948;2023-08-24T07:27:32;9.48;;;5.28;;
64832;SDS011;51290;45.060;38.948;2023-08-24T07:29:59;11.82;;;5.70;;
64832;SDS011;51290;45.060;38.948;2023-08-24T07:32:26;11.43;;;5.85;;
64832;SDS011;51290;45.060;38.948;2023-08-24T07:34:53;9.10;;;5.03;;
64832;SDS011;51290;45.060;38.948;2023-08-24T07:37:19;8.27;;;5.70;;
64832;SDS011;51290;45.060;38.948;2023-08-24T07:39:44;10.52;;;5.38;;
64832;SDS011;51290;45.060;38.948;2023-08-24T07:42:10;7.38;;;5.05;;
64832;SDS011;51290;45.060;38.948;2023-08-24T07:44:36;7.72;;;5.70;;
64832;SDS011;51290;45.060;38.948;2023-08-24T07:47:02;10.30;;;6.43;;
64832;SDS011;51290;45.060;38.948;2023-08-24T07:49:29;7.38;;;4.95;;
64832;SDS011;51290;45.060;38.948;2023-08-24T07:51:55;8.90;;;5.30;;
64832;SDS011;51290;45.060;38.948;2023-08-24T07:54:22;10.38;;;5.18;;
64832;SDS011;51290;45.060;38.948;2023-08-24T07:56:49;9.55;;;5.00;;
64832;SDS011;51290;45.060;38.948;2023-08-24T07:59:15;7.25;;;4.85;;
64832;SDS011;51290;45.060;38.948;2023-08-24T08:01:41;9.85;;;5.28;;
64832;SDS011;51290;45.060;38.948;2023-08-24T08:04:06;7.32;;;4.53;;
64832;SDS011;51290;45.060;38.948;2023-08-24T08:06:32;11.77;;;4.93;;
64832;SDS011;51290;45.060;38.948;2023-08-24T08:08:59;8.98;;;4.60;;
64832;SDS011;51290;45.060;38.948;2023-08-24T08:11:25;8.80;;;4.72;;
64832;SDS011;51290;45.060;38.948;2023-08-24T08:13:51;5.13;;;4.10;;
64832;SDS011;51290;45.060;38.948;2023-08-24T08:16:17;6.80;;;4.95;;
64832;SDS011;51290;45.060;38.948;2023-08-24T08:18:43;6.72;;;4.63;;
64832;SDS011;51290;45.060;38.948;2023-08-24T08:21:10;4.82;;;4.22;;
64832;SDS011;51290;45.060;38.948;2023-08-24T08:23:45;10.57;;;5.32;;
64832;SDS011;51290;45.060;38.948;2023-08-24T08:26:12;10.75;;;5.32;;
64832;SDS011;51290;45.060;38.948;2023-08-24T08:28:41;7.63;;;4.68;;
64832;SDS011;51290;45.060;38.948;2023-08-24T08:31:07;7.93;;;4.68;;
64832;SDS011;51290;45.060;38.948;2023-08-24T08:33:33;5.65;;;4.32;;
64832;SDS011;51290;45.060;38.948;2023-08-24T08:35:59;6.55;;;4.43;;
64832;SDS011;51290;45.060;38.948;2023-08-24T08:38:25;8.13;;;5.00;;
64832;SDS011;51290;45.060;38.948;2023-08-24T08:40:53;9.13;;;4.78;;
64832;SDS011;51290;45.060;38.948;2023-08-24T08:43:21;8.18;;;4.30;;
64832;SDS011;51290;45.060;38.948;2023-08-24T08:45:49;6.75;;;4.10;;
64832;SDS011;51290;45.060;38.948;2023-08-24T08:48:16;9.45;;;4.90;;
64832;SDS011;51290;45.060;38.948;2023-08-24T08:50:47;6.32;;;4.40;;
64832;SDS011;51290;45.060;38.948;2023-08-24T08:53:15;7.05;;;4.25;;
64832;SDS011;51290;45.060;38.948;2023-08-24T08:55:42;7.25;;;5.15;;
64832;SDS011;51290;45.060;38.948;2023-08-24T08:58:10;7.05;;;4.50;;
64832;SDS011;51290;45.060;38.948;2023-08-24T09:00:36;11.45;;;5.25;;
64832;SDS011;51290;45.060;38.948;2023-08-24T09:03:03;12.27;;;4.70;;
64832;SDS011;51290;45.060;38.948;2023-08-24T09:05:30;6.93;;;4.80;;
64832;SDS011;51290;45.060;38.948;2023-08-24T09:07:57;6.38;;;4.35;;
64832;SDS011;51290;45.060;38.948;2023-08-24T09:10:28;10.88;;;4.93;;
64832;SDS011;51290;45.060;38.948;2023-08-24T09:12:53;6.15;;;4.15;;
64832;SDS011;51290;45.060;38.948;2023-08-24T09:15:26;9.85;;;4.47;;
64832;SDS011;51290;45.060;38.948;2023-08-24T09:17:53;6.80;;;4.07;;
64832;SDS011;51290;45.060;38.948;2023-08-24T09:20:20;7.78;;;4.05;;
64832;SDS011;51290;45.060;38.948;2023-08-24T09:22:46;6.57;;;4.45;;
64832;SDS011;51290;45.060;38.948;2023-08-24T09:25:12;10.30;;;3.90;;
64832;SDS011;51290;45.060;38.948;2023-08-24T09:27:38;6.85;;;4.00;;
64832;SDS011;51290;45.060;38.948;2023-08-24T09:30:05;6.43;;;4.15;;
64832;SDS011;51290;45.060;38.948;2023-08-24T09:32:31;5.97;;;3.90;;
64832;SDS011;51290;45.060;38.948;2023-08-24T09:35:04;5.60;;;3.90;;
64832;SDS011;51290;45.060;38.948;2023-08-24T09:37:35;8.52;;;4.50;;
64832;SDS011;51290;45.060;38.948;2023-08-24T09:40:02;6.63;;;4.45;;
64832;SDS011;51290;45.060;38.948;2023-08-24T09:42:38;8.10;;;4.43;;
64832;SDS011;51290;45.060;38.948;2023-08-24T09:45:08;9.55;;;5.00;;
64832;SDS011;51290;45.060;38.948;2023-08-24T09:47:37;6.85;;;4.45;;
64832;SDS011;51290;45.060;38.948;2023-08-24T09:50:04;11.18;;;4.03;;
64832;SDS011;51290;45.060;38.948;2023-08-24T09:52:34;6.78;;;4.43;;
64832;SDS011;51290;45.060;38.948;2023-08-24T09:55:04;5.38;;;3.92;;
64832;SDS011;51290;45.060;38.948;2023-08-24T09:57:37;5.75;;;3.97;;
64832;SDS011;51290;45.060;38.948;2023-08-24T10:00:08;6.32;;;4.32;;
64832;SDS011;51290;45.060;38.948;2023-08-24T10:05:22;10.73;;;4.03;;
64832;SDS011;51290;45.060;38.948;2023-08-24T10:07:51;9.75;;;3.95;;
64832;SDS011;51290;45.060;38.948;2023-08-24T10:10:20;8.30;;;3.85;;
64832;SDS011;51290;45.060;38.948;2023-08-24T10:12:50;8.02;;;4.13;;
64832;SDS011;51290;45.060;38.948;2023-08-24T10:15:18;8.90;;;4.32;;
64832;SDS011;51290;45.060;38.948;2023-08-24T12:17:15;5.13;;;3.30;;
64832;SDS011;51290;45.060;38.948;2023-08-24T12:19:42;9.30;;;3.83;;
64832;SDS011;51290;45.060;38.948;2023-08-24T15:27:36;4.43;;;3.05;;
64832;SDS011;51290;45.060;38.948;2023-08-24T15:30:04;5.43;;;3.35;;
64832;SDS011;51290;45.060;38.948;2023-08-24T15:32:32;10.45;;;3.15;;
64832;SDS011;51290;45.060;38.948;2023-08-24T15:34:58;9.65;;;3.47;;
64832;SDS011;51290;45.060;38.948;2023-08-24T15:37:24;7.88;;;3.00;;
64832;SDS011;51290;45.060;38.948;2023-08-24T15:39:51;7.03;;;3.00;;
64832;SDS011;51290;45.060;38.948;2023-08-24T15:42:18;11.85;;;3.28;;
64832;SDS011;51290;45.060;38.948;2023-08-24T15:44:44;4.72;;;3.47;;
64832;SDS011;51290;45.060;38.948;2023-08-24T15:47:10;4.63;;;2.92;;
64832;SDS011;51290;45.060;38.948;2023-08-24T15:49:40;8.23;;;3.00;;
64832;SDS011;51290;45.060;38.948;2023-08-24T15:52:07;6.45;;;3.72;;
64832;SDS011;51290;45.060;38.948;2023-08-24T15:54:33;7.53;;;3.45;;
64832;SDS011;51290;45.060;38.948;2023-08-24T15:57:02;5.65;;;3.55;;
64832;SDS011;51290;45.060;38.948;2023-08-24T15:59:28;7.60;;;3.50;;
64832;SDS011;51290;45.060;38.948;2023-08-24T16:01:54;10.80;;;3.35;;
64832;SDS011;51290;45.060;38.948;2023-08-24T16:04:23;10.00;;;3.15;;
64832;SDS011;51290;45.060;38.948;2023-08-24T16:06:49;7.43;;;3.78;;
64832;SDS011;51290;45.060;38.948;2023-08-24T16:09:20;5.43;;;3.38;;
64832;SDS011;51290;45.060;38.948;2023-08-24T16:11:48;13.57;;;5.32;;
64832;SDS011;51290;45.060;38.948;2023-08-24T16:14:17;10.38;;;4.95;;
64832;SDS011;51290;45.060;38.948;2023-08-24T16:16:44;10.57;;;5.78;;
64832;SDS011;51290;45.060;38.948;2023-08-24T16:19:10;8.38;;;5.20;;
64832;SDS011;51290;45.060;38.948;2023-08-24T16:21:40;12.20;;;5.38;;
64832;SDS011;51290;45.060;38.948;2023-08-24T16:24:06;12.32;;;5.65;;
64832;SDS011;51290;45.060;38.948;2023-08-24T16:26:35;9.68;;;5.40;;
64832;SDS011;51290;45.060;38.948;2023-08-24T16:29:01;9.48;;;5.15;;
64832;SDS011;51290;45.060;38.948;2023-08-24T16:31:29;10.65;;;4.60;;
64832;SDS011;51290;45.060;38.948;2023-08-24T16:33:56;9.13;;;3.92;;
64832;SDS011;51290;45.060;38.948;2023-08-24T16:36:25;11.20;;;4.72;;
64832;SDS011;51290;45.060;38.948;2023-08-24T16:38:51;8.68;;;4.30;;
64832;SDS011;51290;45.060;38.948;2023-08-24T16:41:18;13.35;;;4.65;;
64832;SDS011;51290;45.060;38.948;2023-08-24T16:43:46;10.43;;;4.40;;
64832;SDS011;51290;45.060;38.948;2023-08-24T16:46:12;8.45;;;4.18;;
64832;SDS011;51290;45.060;38.948;2023-08-24T16:48:39;8.52;;;4.32;;
64832;SDS011;51290;45.060;38.948;2023-08-24T16:51:06;11.07;;;4.70;;
64832;SDS011;51290;45.060;38.948;2023-08-24T16:53:33;10.57;;;4.22;;
64832;SDS011;51290;45.060;38.948;2023-08-24T16:55:59;9.07;;;4.13;;
64832;SDS011;51290;45.060;38.948;2023-08-24T16:58:26;9.10;;;3.53;;
64832;SDS011;51290;45.060;38.948;2023-08-24T17:00:52;8.35;;;4.32;;
64832;SDS011;51290;45.060;38.948;2023-08-24T17:03:19;15.75;;;4.45;;
64832;SDS011;51290;45.060;38.948;2023-08-24T17:05:46;13.75;;;4.25;;
64832;SDS011;51290;45.060;38.948;2023-08-24T17:08:14;6.20;;;3.67;;
64832;SDS011;51290;45.060;38.948;2023-08-24T17:10:40;9.27;;;3.30;;
64832;SDS011;51290;45.060;38.948;2023-08-24T17:13:06;7.22;;;3.60;;
64832;SDS011;51290;45.060;38.948;2023-08-24T17:15:34;5.05;;;3.38;;
64832;SDS011;51290;45.060;38.948;2023-08-24T17:18:00;8.48;;;3.22;;
64832;SDS011;51290;45.060;38.948;2023-08-24T17:20:26;8.13;;;3.17;;
64832;SDS011;51290;45.060;38.948;2023-08-24T17:22:54;6.15;;;3.40;;
64832;SDS011;51290;45.060;38.948;2023-08-24T17:25:20;8.88;;;3.05;;
64832;SDS011;51290;45.060;38.948;2023-08-24T17:27:47;6.93;;;3.17;;
64832;SDS011;51290;45.060;38.948;2023-08-24T17:30:15;12.57;;;3.38;;
64832;SDS011;51290;45.060;38.948;2023-08-24T17:32:43;4.50;;;2.55;;
64832;SDS011;51290;45.060;38.948;2023-08-24T17:35:10;7.40;;;3.45;;
64832;SDS011;51290;45.060;38.948;2023-08-24T17:37:37;9.30;;;2.80;;
64832;SDS011;51290;45.060;38.948;2023-08-24T17:40:03;7.70;;;3.25;;
64832;SDS011;51290;45.060;38.948;2023-08-24T17:42:39;9.55;;;3.65;;
64832;SDS011;51290;45.060;38.948;2023-08-24T17:45:07;11.93;;;3.65;;
64832;SDS011;51290;45.060;38.948;2023-08-24T17:47:38;17.13;;;3.83;;
64832;SDS011;51290;45.060;38.948;2023-08-24T17:50:04;7.07;;;3.20;;
64832;SDS011;51290;45.060;38.948;2023-08-24T17:52:31;6.90;;;4.00;;
64832;SDS011;51290;45.060;38.948;2023-08-24T17:54:58;12.05;;;3.60;;
64832;SDS011;51290;45.060;38.948;2023-08-24T17:57:24;7.22;;;3.95;;
64832;SDS011;51290;45.060;38.948;2023-08-24T17:59:52;8.50;;;4.35;;
64832;SDS011;51290;45.060;38.948;2023-08-24T18:02:18;5.35;;;3.20;;
64832;SDS011;51290;45.060;38.948;2023-08-24T18:04:44;20.83;;;4.03;;
64832;SDS011;51290;45.060;38.948;2023-08-24T18:07:11;6.70;;;3.55;;
64832;SDS011;51290;45.060;38.948;2023-08-24T18:09:37;10.05;;;3.58;;
64832;SDS011;51290;45.060;38.948;2023-08-24T18:12:04;7.22;;;4.13;;
64832;SDS011;51290;45.060;38.948;2023-08-24T18:14:50;8.68;;;4.28;;
64832;SDS011;51290;45.060;38.948;2023-08-24T18:17:16;11.05;;;4.93;;
64832;SDS011;51290;45.060;38.948;2023-08-24T18:19:43;8.27;;;4.65;;
64832;SDS011;51290;45.060;38.948;2023-08-24T18:22:10;16.45;;;5.20;;
64832;SDS011;51290;45.060;38.948;2023-08-24T18:24:43;14.15;;;5.30;;
64832;SDS011;51290;45.060;38.948;2023-08-24T18:27:09;7.25;;;4.68;;
64832;SDS011;51290;45.060;38.948;2023-08-24T18:29:40;15.05;;;4.72;;
64832;SDS011;51290;45.060;38.948;2023-08-24T18:32:06;6.60;;;4.55;;
64832;SDS011;51290;45.060;38.948;2023-08-24T18:34:32;9.52;;;5.18;;
64832;SDS011;51290;45.060;38.948;2023-08-24T18:36:58;8.32;;;4.72;;
64832;SDS011;51290;45.060;38.948;2023-08-24T18:39:25;10.95;;;5.00;;
64832;SDS011;51290;45.060;38.948;2023-08-24T18:41:53;7.63;;;4.38;;
64832;SDS011;51290;45.060;38.948;2023-08-24T18:44:20;8.50;;;5.10;;
64832;SDS011;51290;45.060;38.948;2023-08-24T18:46:47;8.98;;;5.40;;
64832;SDS011;51290;45.060;38.948;2023-08-24T18:49:15;9.27;;;5.07;;
64832;SDS011;51290;45.060;38.948;2023-08-24T18:51:50;11.48;;;5.13;;
64832;SDS011;51290;45.060;38.948;2023-08-24T18:54:25;14.50;;;6.13;;
64832;SDS011;51290;45.060;38.948;2023-08-24T18:56:53;9.27;;;5.97;;
64832;SDS011;51290;45.060;38.948;2023-08-24T18:59:22;10.77;;;5.90;;
64832;SDS011;51290;45.060;38.948;2023-08-24T19:01:53;12.88;;;6.10;;
64832;SDS011;51290;45.060;38.948;2023-08-24T19:04:21;12.00;;;5.85;;
64832;SDS011;51290;45.060;38.948;2023-08-24T19:06:49;10.27;;;5.60;;
64832;SDS011;51290;45.060;38.948;2023-08-24T19:09:18;12.48;;;6.05;;
64832;SDS011;51290;45.060;38.948;2023-08-24T19:11:45;14.88;;;6.32;;
64832;SDS011;51290;45.060;38.948;2023-08-24T19:14:12;10.70;;;6.32;;
64832;SDS011;51290;45.060;38.948;2023-08-24T19:16:38;11.82;;;6.38;;
64832;SDS011;51290;45.060;38.948;2023-08-24T19:19:04;10.48;;;6.05;;
64832;SDS011;51290;45.060;38.948;2023-08-24T19:21:31;12.13;;;6.20;;
64832;SDS011;51290;45.060;38.948;2023-08-24T19:23:58;14.23;;;5.35;;
64832;SDS011;51290;45.060;38.948;2023-08-24T19:26:24;17.40;;;5.93;;
64832;SDS011;51290;45.060;38.948;2023-08-24T19:28:51;15.30;;;6.15;;
64832;SDS011;51290;45.060;38.948;2023-08-24T19:31:20;8.65;;;5.32;;
64832;SDS011;51290;45.060;38.948;2023-08-24T19:33:48;9.50;;;5.70;;
64832;SDS011;51290;45.060;38.948;2023-08-24T19:36:14;16.60;;;5.47;;
64832;SDS011;51290;45.060;38.948;2023-08-24T19:38:41;11.15;;;5.72;;
64832;SDS011;51290;45.060;38.948;2023-08-24T19:41:07;11.95;;;5.65;;